ADDS TAF Data INFO
IDs: Format: Raw Decoded Include METARs

Data at: 1418 UTC 19 Nov 2017

KINW 191356Z AUTO 00000KT 10SM CLR A3033 RMK AO2 SLPNO $

KINW 191125Z 1912/2012 VRB04KT P6SM FEW250